<?xml version="1.0" encoding="UTF-8" standalone="no" ?>
<gpx xmlns="http://www.topografix.com/GPX/1/1" xmlns:xsi="http://www.w3.org/2001/XMLSchema-instance" xsi:schemaLocation="http://www.topografix.com/GPX/1/1 http://www.topografix.com/GPX/1/1/gpx.xsd" version="1.1" creator="VisuGPX - https://www.visugpx.com">
  <metadata>
    <name>Jour 3</name>
    <desc><![CDATA[

]]></desc>
  </metadata>
  <trk>
    <name><![CDATA[Jour 3]]></name>
    <trkseg>
      <trkpt lat="47.98251" lon="6.98394">
        <ele>1229.8000488281</ele>
        <time>2020-08-10T06:25:22.000Z</time>
      </trkpt>
      <trkpt lat="47.98251" lon="6.98394">
        <ele>1229.8000488281</ele>
        <time>2020-08-10T06:25:22.000Z</time>
      </trkpt>
      <trkpt lat="47.98258" lon="6.98382">
        <ele>1218</ele>
      </trkpt>
      <trkpt lat="47.98258" lon="6.9838">
        <ele>1231</ele>
        <time>2020-08-10T06:26:28.000Z</time>
      </trkpt>
      <trkpt lat="47.98249" lon="6.98371">
        <ele>1208</ele>
      </trkpt>
      <trkpt lat="47.98216" lon="6.98372">
        <ele>1206.9</ele>
      </trkpt>
      <trkpt lat="47.98167" lon="6.98367">
        <ele>1224.72550016</ele>
        <time>2020-08-10T06:28:08.235Z</time>
      </trkpt>
      <trkpt lat="47.98094" lon="6.98412">
        <ele>1215</ele>
        <time>2020-08-10T06:30:08.839Z</time>
      </trkpt>
      <trkpt lat="47.98057" lon="6.9842">
        <ele>1207</ele>
        <time>2020-08-10T06:31:08.249Z</time>
      </trkpt>
      <trkpt lat="47.97894" lon="6.98539">
        <ele>1213</ele>
        <time>2020-08-10T06:33:08.062Z</time>
      </trkpt>
      <trkpt lat="47.9785" lon="6.98567">
        <ele>1217</ele>
        <time>2020-08-10T06:34:08.467Z</time>
      </trkpt>
      <trkpt lat="47.97809" lon="6.98614">
        <ele>1223</ele>
        <time>2020-08-10T06:35:08.874Z</time>
      </trkpt>
      <trkpt lat="47.97764" lon="6.9866">
        <ele>1230.4598016</ele>
        <time>2020-08-10T06:36:08.279Z</time>
      </trkpt>
      <trkpt lat="47.97723" lon="6.98712">
        <ele>1235.8118691792</ele>
        <time>2020-08-10T06:37:09.188Z</time>
      </trkpt>
      <trkpt lat="47.97645" lon="6.98744">
        <ele>1247</ele>
        <time>2020-08-10T06:39:08.000Z</time>
      </trkpt>
      <trkpt lat="47.97611" lon="6.98767">
        <ele>1251.74230016</ele>
        <time>2020-08-10T06:40:08.403Z</time>
      </trkpt>
      <trkpt lat="47.97569" lon="6.98825">
        <ele>1257.5646606453</ele>
        <time>2020-08-10T06:41:08.812Z</time>
      </trkpt>
      <trkpt lat="47.97555" lon="6.98862">
        <ele>1263.72400128</ele>
        <time>2020-08-10T06:42:08.220Z</time>
      </trkpt>
      <trkpt lat="47.97567" lon="6.98928">
        <ele>1270.5255495246</ele>
        <time>2020-08-10T06:43:08.623Z</time>
      </trkpt>
      <trkpt lat="47.97463" lon="6.99058">
        <ele>1278.7979890852</ele>
        <time>2020-08-10T06:50:08.972Z</time>
      </trkpt>
      <trkpt lat="47.97424" lon="6.99074">
        <ele>1278</ele>
        <time>2020-08-10T06:52:08.892Z</time>
      </trkpt>
      <trkpt lat="47.97366" lon="6.99099">
        <ele>1276</ele>
        <time>2020-08-10T06:53:08.299Z</time>
      </trkpt>
      <trkpt lat="47.97287" lon="6.99134">
        <ele>1272</ele>
        <time>2020-08-10T06:54:08.707Z</time>
      </trkpt>
      <trkpt lat="47.97186" lon="6.99151">
        <ele>1246.9</ele>
      </trkpt>
      <trkpt lat="47.97066" lon="6.992">
        <ele>1255.896</ele>
        <time>2020-08-10T06:57:09.940Z</time>
      </trkpt>
      <trkpt lat="47.97007" lon="6.99211">
        <ele>1257</ele>
        <time>2020-08-10T06:58:08.350Z</time>
      </trkpt>
      <trkpt lat="47.96941" lon="6.99268">
        <ele>1255</ele>
        <time>2020-08-10T06:59:08.759Z</time>
      </trkpt>
      <trkpt lat="47.96896" lon="6.99303">
        <ele>1245.5692598</ele>
        <time>2020-08-10T07:00:08.165Z</time>
      </trkpt>
      <trkpt lat="47.96847" lon="6.99374">
        <ele>1227</ele>
        <time>2020-08-10T07:02:07.982Z</time>
      </trkpt>
      <trkpt lat="47.96811" lon="6.99402">
        <ele>1217</ele>
        <time>2020-08-10T07:03:08.392Z</time>
      </trkpt>
      <trkpt lat="47.96785" lon="6.99452">
        <ele>1215</ele>
        <time>2020-08-10T07:04:08.800Z</time>
      </trkpt>
      <trkpt lat="47.96734" lon="6.9949">
        <ele>1213</ele>
        <time>2020-08-10T07:05:08.208Z</time>
      </trkpt>
      <trkpt lat="47.96682" lon="6.99535">
        <ele>1214</ele>
        <time>2020-08-10T07:06:08.618Z</time>
      </trkpt>
      <trkpt lat="47.96617" lon="6.9961">
        <ele>1215</ele>
        <time>2020-08-10T07:07:38.491Z</time>
      </trkpt>
      <trkpt lat="47.96561" lon="6.9965">
        <ele>1222</ele>
        <time>2020-08-10T07:09:38.315Z</time>
      </trkpt>
      <trkpt lat="47.96522" lon="6.9968">
        <ele>1228.77420032</ele>
        <time>2020-08-10T07:10:38.722Z</time>
      </trkpt>
      <trkpt lat="47.96448" lon="6.99722">
        <ele>1233.7519400579</ele>
        <time>2020-08-10T07:12:38.537Z</time>
      </trkpt>
      <trkpt lat="47.96325" lon="6.99766">
        <ele>1234.266202932</ele>
        <time>2020-08-10T07:14:38.362Z</time>
      </trkpt>
      <trkpt lat="47.96293" lon="6.99821">
        <ele>1235.7799401993</ele>
        <time>2020-08-10T07:15:38.873Z</time>
      </trkpt>
      <trkpt lat="47.96259" lon="6.99857">
        <ele>1236</ele>
        <time>2020-08-10T07:16:39.081Z</time>
      </trkpt>
      <trkpt lat="47.96226" lon="6.99913">
        <ele>1235</ele>
        <time>2020-08-10T07:17:51.296Z</time>
      </trkpt>
      <trkpt lat="47.96226" lon="6.99964">
        <ele>1234</ele>
        <time>2020-08-10T07:18:39.542Z</time>
      </trkpt>
      <trkpt lat="47.96169" lon="7.00158">
        <ele>1232</ele>
        <time>2020-08-10T07:20:39.266Z</time>
      </trkpt>
      <trkpt lat="47.9612" lon="7.00224">
        <ele>1230.36969984</ele>
        <time>2020-08-10T07:21:57.283Z</time>
      </trkpt>
      <trkpt lat="47.96098" lon="7.00276">
        <ele>1228</ele>
        <time>2020-08-10T07:22:39.529Z</time>
      </trkpt>
      <trkpt lat="47.9606" lon="7.00304">
        <ele>1224</ele>
        <time>2020-08-10T07:23:38.050Z</time>
      </trkpt>
      <trkpt lat="47.96014" lon="7.00371">
        <ele>1216.247315946</ele>
        <time>2020-08-10T07:24:38.552Z</time>
      </trkpt>
      <trkpt lat="47.95933" lon="7.00483">
        <ele>1214.8092977854</ele>
        <time>2020-08-10T07:26:39.162Z</time>
      </trkpt>
      <trkpt lat="47.95897" lon="7.0048">
        <ele>1217.81980032</ele>
        <time>2020-08-10T07:27:39.178Z</time>
      </trkpt>
      <trkpt lat="47.95834" lon="7.00501">
        <ele>1215</ele>
        <time>2020-08-10T07:28:38.791Z</time>
      </trkpt>
      <trkpt lat="47.95779" lon="7.00546">
        <ele>1214</ele>
        <time>2020-08-10T07:29:39.097Z</time>
      </trkpt>
      <trkpt lat="47.95692" lon="7.00658">
        <ele>1213</ele>
        <time>2020-08-10T07:31:40.907Z</time>
      </trkpt>
      <trkpt lat="47.9565" lon="7.00723">
        <ele>1213.90729984</ele>
        <time>2020-08-10T07:32:41.907Z</time>
      </trkpt>
      <trkpt lat="47.95629" lon="7.00805">
        <ele>1211.818271968</ele>
        <time>2020-08-10T07:33:42.811Z</time>
      </trkpt>
      <trkpt lat="47.9555" lon="7.009">
        <ele>1209</ele>
        <time>2020-08-10T07:34:40.114Z</time>
      </trkpt>
      <trkpt lat="47.95521" lon="7.00996">
        <ele>1204.1566697394</ele>
        <time>2020-08-10T07:35:39.418Z</time>
      </trkpt>
      <trkpt lat="47.955" lon="7.01185">
        <ele>1195.2748992</ele>
        <time>2020-08-10T07:37:38.231Z</time>
      </trkpt>
      <trkpt lat="47.95487" lon="7.01324">
        <ele>1193</ele>
        <time>2020-08-10T07:38:38.736Z</time>
      </trkpt>
      <trkpt lat="47.9543" lon="7.01432">
        <ele>1190</ele>
        <time>2020-08-10T07:39:38.135Z</time>
      </trkpt>
      <trkpt lat="47.95401" lon="7.0151">
        <ele>1189</ele>
        <time>2020-08-10T07:40:38.542Z</time>
      </trkpt>
      <trkpt lat="47.95387" lon="7.01594">
        <ele>1190.6937313174</ele>
        <time>2020-08-10T07:41:37.952Z</time>
      </trkpt>
      <trkpt lat="47.95364" lon="7.01661">
        <ele>1191.2848787097</ele>
        <time>2020-08-10T07:44:38.174Z</time>
      </trkpt>
      <trkpt lat="47.95343" lon="7.01739">
        <ele>1192</ele>
        <time>2020-08-10T07:45:38.581Z</time>
      </trkpt>
      <trkpt lat="47.95331" lon="7.01791">
        <ele>1190.7008</ele>
        <time>2020-08-10T07:46:37.988Z</time>
      </trkpt>
      <trkpt lat="47.95308" lon="7.01865">
        <ele>1191.776838631</ele>
        <time>2020-08-10T07:48:38.795Z</time>
      </trkpt>
      <trkpt lat="47.95251" lon="7.01935">
        <ele>1195.989245841</ele>
        <time>2020-08-10T08:25:38.000Z</time>
      </trkpt>
      <trkpt lat="47.9523" lon="7.01985">
        <ele>1199</ele>
        <time>2020-08-10T08:27:38.809Z</time>
      </trkpt>
      <trkpt lat="47.95196" lon="7.01994">
        <ele>1202</ele>
        <time>2020-08-10T08:30:12.000Z</time>
      </trkpt>
      <trkpt lat="47.95197" lon="7.01997">
        <ele>1202</ele>
        <time>2020-08-10T08:30:17.000Z</time>
      </trkpt>
      <trkpt lat="47.95175" lon="7.0196">
        <ele>1202</ele>
        <time>2020-08-10T08:32:38.683Z</time>
      </trkpt>
      <trkpt lat="47.95155" lon="7.01979">
        <ele>1201</ele>
        <time>2020-08-10T08:37:20.728Z</time>
      </trkpt>
      <trkpt lat="47.95113" lon="7.01979">
        <ele>1204</ele>
        <time>2020-08-10T08:38:08.177Z</time>
      </trkpt>
      <trkpt lat="47.95084" lon="7.01986">
        <ele>1208</ele>
        <time>2020-08-10T08:39:08.587Z</time>
      </trkpt>
      <trkpt lat="47.95043" lon="7.01992">
        <ele>1213</ele>
        <time>2020-08-10T08:40:07.993Z</time>
      </trkpt>
      <trkpt lat="47.94997" lon="7.02">
        <ele>1215.14230016</ele>
        <time>2020-08-10T08:41:08.403Z</time>
      </trkpt>
      <trkpt lat="47.94913" lon="7.02045">
        <ele>1226.24740096</ele>
        <time>2020-08-10T08:43:08.217Z</time>
      </trkpt>
      <trkpt lat="47.94878" lon="7.02032">
        <ele>1232.2751300805</ele>
        <time>2020-08-10T08:44:08.623Z</time>
      </trkpt>
      <trkpt lat="47.94815" lon="7.02078">
        <ele>1240</ele>
        <time>2020-08-10T08:45:08.029Z</time>
      </trkpt>
      <trkpt lat="47.94783" lon="7.02137">
        <ele>1245.14580096</ele>
        <time>2020-08-10T08:46:08.438Z</time>
      </trkpt>
      <trkpt lat="47.94714" lon="7.02203">
        <ele>1254.2550016</ele>
        <time>2020-08-10T08:48:08.255Z</time>
      </trkpt>
      <trkpt lat="47.94677" lon="7.02232">
        <ele>1266.1557219672</ele>
        <time>2020-08-10T08:50:08.571Z</time>
      </trkpt>
      <trkpt lat="47.94622" lon="7.02285">
        <ele>1271</ele>
        <time>2020-08-10T08:51:08.077Z</time>
      </trkpt>
      <trkpt lat="47.94572" lon="7.02309">
        <ele>1273.4151191587</ele>
        <time>2020-08-10T08:52:21.181Z</time>
      </trkpt>
      <trkpt lat="47.94537" lon="7.02314">
        <ele>1274</ele>
        <time>2020-08-10T08:53:08.483Z</time>
      </trkpt>
      <trkpt lat="47.94425" lon="7.02321">
        <ele>1265</ele>
        <time>2020-08-10T08:55:08.299Z</time>
      </trkpt>
      <trkpt lat="47.94376" lon="7.02353">
        <ele>1260.4356776867</ele>
        <time>2020-08-10T08:56:02.645Z</time>
      </trkpt>
      <trkpt lat="47.94366" lon="7.0235">
        <ele>1260</ele>
        <time>2020-08-10T08:56:07.000Z</time>
      </trkpt>
      <trkpt lat="47.94329" lon="7.02335">
        <ele>1252.8524992</ele>
        <time>2020-08-10T08:57:08.455Z</time>
      </trkpt>
      <trkpt lat="47.94295" lon="7.02356">
        <ele>1242.7334980622</ele>
        <time>2020-08-10T08:58:09.661Z</time>
      </trkpt>
      <trkpt lat="47.94151" lon="7.02347">
        <ele>1229.15020032</ele>
        <time>2020-08-10T09:00:08.482Z</time>
      </trkpt>
      <trkpt lat="47.94082" lon="7.02348">
        <ele>1231.3814016</ele>
        <time>2020-08-10T09:01:08.887Z</time>
      </trkpt>
      <trkpt lat="47.93994" lon="7.02331">
        <ele>1236</ele>
        <time>2020-08-10T09:02:32.000Z</time>
      </trkpt>
      <trkpt lat="47.93952" lon="7.02328">
        <ele>1232</ele>
        <time>2020-08-10T09:04:07.922Z</time>
      </trkpt>
      <trkpt lat="47.93828" lon="7.02277">
        <ele>1223</ele>
        <time>2020-08-10T09:06:08.737Z</time>
      </trkpt>
      <trkpt lat="47.93762" lon="7.0225">
        <ele>1221</ele>
        <time>2020-08-10T09:07:08.146Z</time>
      </trkpt>
      <trkpt lat="47.93699" lon="7.02221">
        <ele>1223.15720064</ele>
        <time>2020-08-10T09:08:08.552Z</time>
      </trkpt>
      <trkpt lat="47.9366" lon="7.02209">
        <ele>1225</ele>
        <time>2020-08-10T09:09:07.961Z</time>
      </trkpt>
      <trkpt lat="47.93604" lon="7.02151">
        <ele>1223</ele>
        <time>2020-08-10T09:10:08.375Z</time>
      </trkpt>
      <trkpt lat="47.93495" lon="7.02071">
        <ele>1227.2331660541</ele>
        <time>2020-08-10T09:12:08.190Z</time>
      </trkpt>
      <trkpt lat="47.93433" lon="7.02028">
        <ele>1231</ele>
        <time>2020-08-10T09:13:08.602Z</time>
      </trkpt>
      <trkpt lat="47.9338" lon="7.01999">
        <ele>1231</ele>
        <time>2020-08-10T09:14:08.007Z</time>
      </trkpt>
      <trkpt lat="47.93319" lon="7.01998">
        <ele>1226</ele>
        <time>2020-08-10T09:15:08.417Z</time>
      </trkpt>
      <trkpt lat="47.9325" lon="7.02">
        <ele>1222</ele>
        <time>2020-08-10T09:16:08.829Z</time>
      </trkpt>
      <trkpt lat="47.93194" lon="7.0198">
        <ele>1220.1758965088</ele>
        <time>2020-08-10T09:18:08.746Z</time>
      </trkpt>
      <trkpt lat="47.93149" lon="7.01969">
        <ele>1223.1091824267</ele>
        <time>2020-08-10T09:19:08.152Z</time>
      </trkpt>
      <trkpt lat="47.93098" lon="7.01946">
        <ele>1227.15800064</ele>
        <time>2020-08-10T09:20:08.560Z</time>
      </trkpt>
      <trkpt lat="47.93052" lon="7.01949">
        <ele>1231</ele>
        <time>2020-08-10T09:21:07.969Z</time>
      </trkpt>
      <trkpt lat="47.9293" lon="7.01964">
        <ele>1238</ele>
        <time>2020-08-10T09:23:08.790Z</time>
      </trkpt>
      <trkpt lat="47.92865" lon="7.01948">
        <ele>1238</ele>
        <time>2020-08-10T09:24:08.300Z</time>
      </trkpt>
      <trkpt lat="47.92821" lon="7.01958">
        <ele>1237</ele>
        <time>2020-08-10T09:25:08.709Z</time>
      </trkpt>
      <trkpt lat="47.92767" lon="7.0196">
        <ele>1229</ele>
      </trkpt>
      <trkpt lat="47.92794" lon="7.02106">
        <ele>1235</ele>
        <time>2020-08-10T09:27:08.529Z</time>
      </trkpt>
      <trkpt lat="47.92803" lon="7.02282">
        <ele>1233</ele>
        <time>2020-08-10T09:29:08.350Z</time>
      </trkpt>
      <trkpt lat="47.92802" lon="7.02383">
        <ele>1233</ele>
        <time>2020-08-10T09:30:08.763Z</time>
      </trkpt>
      <trkpt lat="47.92794" lon="7.02487">
        <ele>1231</ele>
        <time>2020-08-10T09:31:08.173Z</time>
      </trkpt>
      <trkpt lat="47.92761" lon="7.02578">
        <ele>1227.858384529</ele>
        <time>2020-08-10T09:32:08.585Z</time>
      </trkpt>
      <trkpt lat="47.92726" lon="7.02639">
        <ele>1231</ele>
        <time>2020-08-10T09:33:07.991Z</time>
      </trkpt>
      <trkpt lat="47.92661" lon="7.02763">
        <ele>1230</ele>
        <time>2020-08-10T09:35:08.814Z</time>
      </trkpt>
      <trkpt lat="47.92696" lon="7.02792">
        <ele>1210</ele>
      </trkpt>
      <trkpt lat="47.92731" lon="7.02792">
        <ele>1218.83439872</ele>
        <time>2020-08-10T09:37:08.636Z</time>
      </trkpt>
      <trkpt lat="47.92738" lon="7.02878">
        <ele>1215</ele>
        <time>2020-08-10T09:38:08.036Z</time>
      </trkpt>
      <trkpt lat="47.9267" lon="7.02903">
        <ele>1218</ele>
        <time>2020-08-10T09:40:08.853Z</time>
      </trkpt>
      <trkpt lat="47.926" lon="7.02872">
        <ele>1224</ele>
        <time>2020-08-10T09:42:08.666Z</time>
      </trkpt>
      <trkpt lat="47.9257" lon="7.0289">
        <ele>1218.0987855531</ele>
        <time>2020-08-10T09:43:08.076Z</time>
      </trkpt>
      <trkpt lat="47.92512" lon="7.02923">
        <ele>1213</ele>
        <time>2020-08-10T09:44:08.487Z</time>
      </trkpt>
      <trkpt lat="47.92454" lon="7.02975">
        <ele>1207</ele>
        <time>2020-08-10T09:45:08.891Z</time>
      </trkpt>
      <trkpt lat="47.92475" lon="7.03008">
        <ele>1203.9987452155</ele>
        <time>2020-08-10T11:02:28.000Z</time>
      </trkpt>
      <trkpt lat="47.92434" lon="7.03006">
        <ele>1203</ele>
        <time>2020-08-10T11:04:08.792Z</time>
      </trkpt>
      <trkpt lat="47.92385" lon="7.03016">
        <ele>1200.4982146032</ele>
        <time>2020-08-10T11:05:08.002Z</time>
      </trkpt>
      <trkpt lat="47.92345" lon="7.03046">
        <ele>1200.5302161662</ele>
        <time>2020-08-10T11:06:08.409Z</time>
      </trkpt>
      <trkpt lat="47.9231" lon="7.03102">
        <ele>1187.2</ele>
      </trkpt>
      <trkpt lat="47.92309" lon="7.03103">
        <ele>1200.99799936</ele>
        <time>2020-08-10T11:06:43.000Z</time>
      </trkpt>
      <trkpt lat="47.92304" lon="7.03138">
        <ele>1200</ele>
        <time>2020-08-10T11:07:05.000Z</time>
      </trkpt>
      <trkpt lat="47.92303" lon="7.032">
        <ele>1182</ele>
      </trkpt>
      <trkpt lat="47.92317" lon="7.03298">
        <ele>1179.4</ele>
      </trkpt>
      <trkpt lat="47.92332" lon="7.03358">
        <ele>1177.3</ele>
      </trkpt>
      <trkpt lat="47.92341" lon="7.0339">
        <ele>1176.3</ele>
      </trkpt>
      <trkpt lat="47.92344" lon="7.0343">
        <ele>1179</ele>
      </trkpt>
      <trkpt lat="47.92312" lon="7.03446">
        <ele>1192.2004009301</ele>
        <time>2020-08-10T11:10:45.000Z</time>
      </trkpt>
      <trkpt lat="47.92293" lon="7.03521">
        <ele>1190.5904523486</ele>
        <time>2020-08-10T11:12:38.905Z</time>
      </trkpt>
      <trkpt lat="47.92292" lon="7.03603">
        <ele>1192</ele>
        <time>2020-08-10T11:13:38.319Z</time>
      </trkpt>
      <trkpt lat="47.9228" lon="7.03685">
        <ele>1196</ele>
        <time>2020-08-10T11:14:38.725Z</time>
      </trkpt>
      <trkpt lat="47.92271" lon="7.03705">
        <ele>1195</ele>
        <time>2020-08-10T11:16:38.543Z</time>
      </trkpt>
      <trkpt lat="47.92262" lon="7.03706">
        <ele>1195.6575103997</ele>
        <time>2020-08-10T11:18:38.551Z</time>
      </trkpt>
      <trkpt lat="47.92236" lon="7.03786">
        <ele>1199</ele>
        <time>2020-08-10T11:20:38.061Z</time>
      </trkpt>
      <trkpt lat="47.92182" lon="7.03862">
        <ele>1200</ele>
        <time>2020-08-10T11:21:38.473Z</time>
      </trkpt>
      <trkpt lat="47.92148" lon="7.03927">
        <ele>1201.2886770093</ele>
        <time>2020-08-10T11:22:38.881Z</time>
      </trkpt>
      <trkpt lat="47.92104" lon="7.03978">
        <ele>1201.2308992</ele>
        <time>2020-08-10T11:23:38.289Z</time>
      </trkpt>
      <trkpt lat="47.92053" lon="7.04023">
        <ele>1203</ele>
        <time>2020-08-10T11:24:38.693Z</time>
      </trkpt>
      <trkpt lat="47.91977" lon="7.04045">
        <ele>1202.24559872</ele>
        <time>2020-08-10T11:26:38.436Z</time>
      </trkpt>
      <trkpt lat="47.9195" lon="7.04081">
        <ele>1202</ele>
        <time>2020-08-10T11:27:39.638Z</time>
      </trkpt>
      <trkpt lat="47.91886" lon="7.04112">
        <ele>1202</ele>
        <time>2020-08-10T11:28:38.062Z</time>
      </trkpt>
      <trkpt lat="47.91851" lon="7.04128">
        <ele>1201</ele>
        <time>2020-08-10T11:29:38.477Z</time>
      </trkpt>
      <trkpt lat="47.91759" lon="7.04204">
        <ele>1196.29299968</ele>
        <time>2020-08-10T11:31:38.910Z</time>
      </trkpt>
      <trkpt lat="47.91731" lon="7.04249">
        <ele>1202.2094103133</ele>
        <time>2020-08-10T11:32:38.335Z</time>
      </trkpt>
      <trkpt lat="47.91681" lon="7.04312">
        <ele>1208</ele>
        <time>2020-08-10T11:33:39.442Z</time>
      </trkpt>
      <trkpt lat="47.91636" lon="7.04345">
        <ele>1210</ele>
        <time>2020-08-10T11:34:38.843Z</time>
      </trkpt>
      <trkpt lat="47.91583" lon="7.04386">
        <ele>1207.4520871266</ele>
        <time>2020-08-10T11:35:38.254Z</time>
      </trkpt>
      <trkpt lat="47.91441" lon="7.04426">
        <ele>1203.7904</ele>
        <time>2020-08-10T11:37:38.076Z</time>
      </trkpt>
      <trkpt lat="47.91398" lon="7.04479">
        <ele>1200</ele>
        <time>2020-08-10T11:38:38.482Z</time>
      </trkpt>
      <trkpt lat="47.91341" lon="7.04574">
        <ele>1200</ele>
        <time>2020-08-10T11:39:26.000Z</time>
      </trkpt>
      <trkpt lat="47.91331" lon="7.04597">
        <ele>1200</ele>
        <time>2020-08-10T11:39:49.000Z</time>
      </trkpt>
      <trkpt lat="47.91304" lon="7.04648">
        <ele>1201.2434269323</ele>
        <time>2020-08-10T11:40:38.494Z</time>
      </trkpt>
      <trkpt lat="47.91284" lon="7.04746">
        <ele>1205</ele>
        <time>2020-08-10T11:44:38.135Z</time>
      </trkpt>
      <trkpt lat="47.91226" lon="7.04849">
        <ele>1193.8064654438</ele>
        <time>2020-08-10T11:46:37.956Z</time>
      </trkpt>
      <trkpt lat="47.91184" lon="7.04932">
        <ele>1189.4777984</ele>
        <time>2020-08-10T11:47:38.369Z</time>
      </trkpt>
      <trkpt lat="47.91152" lon="7.04985">
        <ele>1195.2796992</ele>
        <time>2020-08-10T11:48:38.777Z</time>
      </trkpt>
      <trkpt lat="47.91137" lon="7.05024">
        <ele>1200.4392419943</ele>
        <time>2020-08-10T11:49:38.185Z</time>
      </trkpt>
      <trkpt lat="47.91061" lon="7.05147">
        <ele>1201.4806008556</ele>
        <time>2020-08-10T11:51:38.009Z</time>
      </trkpt>
      <trkpt lat="47.91059" lon="7.05237">
        <ele>1178.6</ele>
      </trkpt>
      <trkpt lat="47.91061" lon="7.05285">
        <ele>1204</ele>
        <time>2020-08-10T11:53:39.632Z</time>
      </trkpt>
      <trkpt lat="47.91059" lon="7.05354">
        <ele>1210.1927601141</ele>
        <time>2020-08-10T11:54:38.060Z</time>
      </trkpt>
      <trkpt lat="47.91052" lon="7.05393">
        <ele>1216.2577159069</ele>
        <time>2020-08-10T11:55:38.572Z</time>
      </trkpt>
      <trkpt lat="47.91077" lon="7.05539">
        <ele>1222</ele>
        <time>2020-08-10T11:57:38.787Z</time>
      </trkpt>
      <trkpt lat="47.91072" lon="7.05611">
        <ele>1224</ele>
        <time>2020-08-10T11:58:38.296Z</time>
      </trkpt>
      <trkpt lat="47.91089" lon="7.05696">
        <ele>1223.64790016</ele>
        <time>2020-08-10T11:59:39.501Z</time>
      </trkpt>
      <trkpt lat="47.91095" lon="7.05778">
        <ele>1223.73590016</ele>
        <time>2020-08-10T12:00:38.621Z</time>
      </trkpt>
      <trkpt lat="47.91142" lon="7.05941">
        <ele>1215</ele>
        <time>2020-08-10T12:03:02.742Z</time>
      </trkpt>
      <trkpt lat="47.91164" lon="7.05996">
        <ele>1212</ele>
        <time>2020-08-10T12:03:38.091Z</time>
      </trkpt>
      <trkpt lat="47.91163" lon="7.06075">
        <ele>1212.32239872</ele>
        <time>2020-08-10T12:04:39.204Z</time>
      </trkpt>
      <trkpt lat="47.9113" lon="7.06242">
        <ele>1215</ele>
        <time>2020-08-10T12:06:33.028Z</time>
      </trkpt>
      <trkpt lat="47.91116" lon="7.06342">
        <ele>1216.3420992</ele>
        <time>2020-08-10T12:08:09.401Z</time>
      </trkpt>
      <trkpt lat="47.91037" lon="7.06515">
        <ele>1214.1968</ele>
        <time>2020-08-10T12:10:07.948Z</time>
      </trkpt>
      <trkpt lat="47.91002" lon="7.06595">
        <ele>1215</ele>
        <time>2020-08-10T12:11:08.253Z</time>
      </trkpt>
      <trkpt lat="47.90972" lon="7.06612">
        <ele>1209.74170112</ele>
        <time>2020-08-10T12:12:08.563Z</time>
      </trkpt>
      <trkpt lat="47.90928" lon="7.06675">
        <ele>1202.8122147962</ele>
        <time>2020-08-10T12:13:07.871Z</time>
      </trkpt>
      <trkpt lat="47.90848" lon="7.06657">
        <ele>1194</ele>
        <time>2020-08-10T12:14:08.183Z</time>
      </trkpt>
      <trkpt lat="47.90767" lon="7.06636">
        <ele>1184</ele>
        <time>2020-08-10T12:16:09.500Z</time>
      </trkpt>
      <trkpt lat="47.90738" lon="7.06639">
        <ele>1173.8</ele>
      </trkpt>
      <trkpt lat="47.90706" lon="7.06643">
        <ele>1188.28879872</ele>
        <time>2020-08-10T12:30:08.424Z</time>
      </trkpt>
      <trkpt lat="47.90607" lon="7.0663">
        <ele>1195.6298312404</ele>
        <time>2020-08-10T12:32:08.335Z</time>
      </trkpt>
      <trkpt lat="47.90513" lon="7.06686">
        <ele>1203</ele>
        <time>2020-08-10T12:34:08.152Z</time>
      </trkpt>
      <trkpt lat="47.90478" lon="7.06727">
        <ele>1205</ele>
        <time>2020-08-10T12:35:09.258Z</time>
      </trkpt>
      <trkpt lat="47.90429" lon="7.06802">
        <ele>1205</ele>
        <time>2020-08-10T12:36:08.656Z</time>
      </trkpt>
      <trkpt lat="47.90417" lon="7.06894">
        <ele>1207.1</ele>
      </trkpt>
      <trkpt lat="47.90421" lon="7.06942">
        <ele>1214.3125240808</ele>
        <time>2020-08-10T12:38:08.577Z</time>
      </trkpt>
      <trkpt lat="47.9038" lon="7.07135">
        <ele>1229</ele>
        <time>2020-08-10T12:41:09.311Z</time>
      </trkpt>
      <trkpt lat="47.90363" lon="7.07183">
        <ele>1231</ele>
        <time>2020-08-10T12:42:09.531Z</time>
      </trkpt>
      <trkpt lat="47.90358" lon="7.07247">
        <ele>1236.19439872</ele>
        <time>2020-08-10T12:43:07.952Z</time>
      </trkpt>
      <trkpt lat="47.90353" lon="7.07345">
        <ele>1244.0780992</ele>
        <time>2020-08-10T12:44:22.761Z</time>
      </trkpt>
      <trkpt lat="47.90337" lon="7.07391">
        <ele>1245</ele>
        <time>2020-08-10T12:45:08.969Z</time>
      </trkpt>
      <trkpt lat="47.90291" lon="7.07501">
        <ele>1246</ele>
        <time>2020-08-10T12:47:08.591Z</time>
      </trkpt>
      <trkpt lat="47.90223" lon="7.07532">
        <ele>1241</ele>
        <time>2020-08-10T12:48:08.814Z</time>
      </trkpt>
      <trkpt lat="47.90185" lon="7.07498">
        <ele>1240</ele>
        <time>2020-08-10T12:49:10.932Z</time>
      </trkpt>
      <trkpt lat="47.9017" lon="7.07505">
        <ele>1239.9066139276</ele>
        <time>2020-08-10T12:49:12.932Z</time>
      </trkpt>
      <trkpt lat="47.90151" lon="7.07499">
        <ele>1239.2985976442</ele>
        <time>2020-08-10T12:49:19.000Z</time>
      </trkpt>
      <trkpt lat="47.90128" lon="7.07476">
        <ele>1238.0575822581</ele>
        <time>2020-08-10T12:50:08.539Z</time>
      </trkpt>
      <trkpt lat="47.90082" lon="7.07469">
        <ele>1234.18539776</ele>
        <time>2020-08-10T12:51:08.053Z</time>
      </trkpt>
      <trkpt lat="47.90002" lon="7.07445">
        <ele>1231</ele>
        <time>2020-08-10T12:52:08.558Z</time>
      </trkpt>
      <trkpt lat="47.89951" lon="7.07412">
        <ele>1226.0957911102</ele>
        <time>2020-08-10T12:53:08.067Z</time>
      </trkpt>
      <trkpt lat="47.89911" lon="7.07381">
        <ele>1213.7</ele>
      </trkpt>
      <trkpt lat="47.8986" lon="7.07343">
        <ele>1206.7</ele>
      </trkpt>
    </trkseg>
  </trk>
</gpx>